sensor_id;sensor_type;location;lat;lon;timestamp;P1;durP1;ratioP1;P2;durP2;ratioP2
22268;SDS011;11303;50.772;19.670;2022-10-22T00:02:00;21.30;;;11.32;;
22268;SDS011;11303;50.772;19.670;2022-10-22T00:04:02;17.75;;;10.48;;
22268;SDS011;11303;50.772;19.670;2022-10-22T00:06:03;18.40;;;11.50;;
22268;SDS011;11303;50.772;19.670;2022-10-22T00:08:05;20.13;;;12.13;;
22268;SDS011;11303;50.772;19.670;2022-10-22T00:10:07;19.00;;;11.48;;
22268;SDS011;11303;50.772;19.670;2022-10-22T00:12:09;21.20;;;11.15;;
22268;SDS011;11303;50.772;19.670;2022-10-22T00:14:11;20.00;;;11.02;;
22268;SDS011;11303;50.772;19.670;2022-10-22T00:16:13;18.25;;;10.68;;
22268;SDS011;11303;50.772;19.670;2022-10-22T00:18:14;21.65;;;11.25;;
22268;SDS011;11303;50.772;19.670;2022-10-22T00:20:16;18.98;;;11.18;;
22268;SDS011;11303;50.772;19.670;2022-10-22T00:22:17;20.30;;;10.90;;
22268;SDS011;11303;50.772;19.670;2022-10-22T00:24:19;22.42;;;11.27;;
22268;SDS011;11303;50.772;19.670;2022-10-22T00:26:21;20.58;;;11.35;;
22268;SDS011;11303;50.772;19.670;2022-10-22T00:28:23;23.25;;;11.52;;
22268;SDS011;11303;50.772;19.670;2022-10-22T00:30:25;22.33;;;10.88;;
22268;SDS011;11303;50.772;19.670;2022-10-22T00:32:26;17.60;;;10.63;;
22268;SDS011;11303;50.772;19.670;2022-10-22T00:34:28;20.85;;;11.23;;
22268;SDS011;11303;50.772;19.670;2022-10-22T00:36:29;23.83;;;11.90;;
22268;SDS011;11303;50.772;19.670;2022-10-22T00:38:31;24.65;;;11.95;;
22268;SDS011;11303;50.772;19.670;2022-10-22T00:40:33;20.67;;;11.75;;
22268;SDS011;11303;50.772;19.670;2022-10-22T00:42:34;21.88;;;12.07;;
22268;SDS011;11303;50.772;19.670;2022-10-22T00:47:02;23.63;;;12.63;;
22268;SDS011;11303;50.772;19.670;2022-10-22T00:49:04;23.20;;;11.73;;
22268;SDS011;11303;50.772;19.670;2022-10-22T00:51:06;23.02;;;11.65;;
22268;SDS011;11303;50.772;19.670;2022-10-22T00:53:12;18.17;;;11.90;;
22268;SDS011;11303;50.772;19.670;2022-10-22T00:55:17;22.00;;;11.93;;
22268;SDS011;11303;50.772;19.670;2022-10-22T00:57:20;16.95;;;10.98;;
22268;SDS011;11303;50.772;19.670;2022-10-22T00:59:22;22.15;;;11.48;;
22268;SDS011;11303;50.772;19.670;2022-10-22T01:01:25;20.23;;;11.45;;
22268;SDS011;11303;50.772;19.670;2022-10-22T01:03:29;18.70;;;11.25;;
22268;SDS011;11303;50.772;19.670;2022-10-22T01:05:36;19.55;;;10.88;;
22268;SDS011;11303;50.772;19.670;2022-10-22T01:07:55;16.33;;;11.02;;
22268;SDS011;11303;50.772;19.670;2022-10-22T01:12:25;22.08;;;11.93;;
22268;SDS011;11303;50.772;19.670;2022-10-22T01:19:01;21.13;;;12.07;;
22268;SDS011;11303;50.772;19.670;2022-10-22T01:21:25;19.98;;;12.30;;
22268;SDS011;11303;50.772;19.670;2022-10-22T01:26:03;22.27;;;12.75;;
22268;SDS011;11303;50.772;19.670;2022-10-22T01:28:15;21.48;;;13.00;;
22268;SDS011;11303;50.772;19.670;2022-10-22T01:30:34;22.30;;;13.38;;
22268;SDS011;11303;50.772;19.670;2022-10-22T01:32:42;24.70;;;13.52;;
22268;SDS011;11303;50.772;19.670;2022-10-22T01:35:03;21.38;;;12.63;;
22268;SDS011;11303;50.772;19.670;2022-10-22T01:37:07;20.33;;;12.10;;
22268;SDS011;11303;50.772;19.670;2022-10-22T01:39:13;25.23;;;12.60;;
22268;SDS011;11303;50.772;19.670;2022-10-22T01:41:16;18.67;;;11.65;;
22268;SDS011;11303;50.772;19.670;2022-10-22T01:43:17;21.80;;;12.95;;
22268;SDS011;11303;50.772;19.670;2022-10-22T01:45:19;22.58;;;12.50;;
22268;SDS011;11303;50.772;19.670;2022-10-22T01:50:03;18.60;;;12.75;;
22268;SDS011;11303;50.772;19.670;2022-10-22T01:55:08;20.90;;;12.50;;
22268;SDS011;11303;50.772;19.670;2022-10-22T02:06:17;24.67;;;13.48;;
22268;SDS011;11303;50.772;19.670;2022-10-22T02:08:22;20.48;;;12.77;;
22268;SDS011;11303;50.772;19.670;2022-10-22T02:10:28;22.13;;;12.82;;
22268;SDS011;11303;50.772;19.670;2022-10-22T02:12:30;23.20;;;13.77;;
22268;SDS011;11303;50.772;19.670;2022-10-22T02:14:34;23.42;;;13.52;;
22268;SDS011;11303;50.772;19.670;2022-10-22T02:16:40;24.92;;;12.35;;
22268;SDS011;11303;50.772;19.670;2022-10-22T02:18:45;22.10;;;13.23;;
22268;SDS011;11303;50.772;19.670;2022-10-22T02:20:51;20.73;;;13.27;;
22268;SDS011;11303;50.772;19.670;2022-10-22T02:22:54;18.80;;;12.52;;
22268;SDS011;11303;50.772;19.670;2022-10-22T02:24:56;21.73;;;13.73;;
22268;SDS011;11303;50.772;19.670;2022-10-22T02:27:00;27.73;;;17.27;;
22268;SDS011;11303;50.772;19.670;2022-10-22T02:29:13;28.63;;;16.42;;
22268;SDS011;11303;50.772;19.670;2022-10-22T02:31:20;29.65;;;16.13;;
22268;SDS011;11303;50.772;19.670;2022-10-22T02:33:29;27.45;;;15.68;;
22268;SDS011;11303;50.772;19.670;2022-10-22T02:35:36;21.67;;;14.52;;
22268;SDS011;11303;50.772;19.670;2022-10-22T02:37:40;24.83;;;17.00;;
22268;SDS011;11303;50.772;19.670;2022-10-22T02:39:43;28.02;;;15.68;;
22268;SDS011;11303;50.772;19.670;2022-10-22T02:41:46;29.88;;;18.73;;
22268;SDS011;11303;50.772;19.670;2022-10-22T02:43:49;24.75;;;16.52;;
22268;SDS011;11303;50.772;19.670;2022-10-22T02:45:53;25.23;;;16.20;;
22268;SDS011;11303;50.772;19.670;2022-10-22T02:47:55;22.23;;;15.10;;
22268;SDS011;11303;50.772;19.670;2022-10-22T02:49:56;22.60;;;14.45;;
22268;SDS011;11303;50.772;19.670;2022-10-22T02:51:58;27.67;;;14.68;;
22268;SDS011;11303;50.772;19.670;2022-10-22T02:53:59;37.83;;;21.33;;
22268;SDS011;11303;50.772;19.670;2022-10-22T02:56:01;46.63;;;24.33;;
22268;SDS011;11303;50.772;19.670;2022-10-22T02:58:03;53.13;;;27.33;;
22268;SDS011;11303;50.772;19.670;2022-10-22T03:00:12;46.13;;;22.10;;
22268;SDS011;11303;50.772;19.670;2022-10-22T03:02:14;40.00;;;22.58;;
22268;SDS011;11303;50.772;19.670;2022-10-22T03:04:15;31.45;;;16.55;;
22268;SDS011;11303;50.772;19.670;2022-10-22T03:06:17;34.40;;;17.63;;
22268;SDS011;11303;50.772;19.670;2022-10-22T03:08:19;30.45;;;17.33;;
22268;SDS011;11303;50.772;19.670;2022-10-22T03:10:20;28.55;;;15.65;;
22268;SDS011;11303;50.772;19.670;2022-10-22T03:12:22;27.95;;;16.10;;
22268;SDS011;11303;50.772;19.670;2022-10-22T03:14:23;26.83;;;15.73;;
22268;SDS011;11303;50.772;19.670;2022-10-22T03:16:25;27.00;;;16.20;;
22268;SDS011;11303;50.772;19.670;2022-10-22T03:18:26;28.17;;;15.13;;
22268;SDS011;11303;50.772;19.670;2022-10-22T03:20:28;26.73;;;16.60;;
22268;SDS011;11303;50.772;19.670;2022-10-22T03:22:29;28.17;;;16.80;;
22268;SDS011;11303;50.772;19.670;2022-10-22T03:24:35;24.75;;;15.68;;
22268;SDS011;11303;50.772;19.670;2022-10-22T03:26:38;24.50;;;15.48;;
22268;SDS011;11303;50.772;19.670;2022-10-22T03:28:41;23.17;;;13.43;;
22268;SDS011;11303;50.772;19.670;2022-10-22T03:30:43;23.40;;;14.10;;
22268;SDS011;11303;50.772;19.670;2022-10-22T03:32:45;24.73;;;13.52;;
22268;SDS011;11303;50.772;19.670;2022-10-22T03:34:46;25.20;;;13.45;;
22268;SDS011;11303;50.772;19.670;2022-10-22T03:36:48;19.67;;;13.55;;
22268;SDS011;11303;50.772;19.670;2022-10-22T03:38:50;22.35;;;13.77;;
22268;SDS011;11303;50.772;19.670;2022-10-22T03:40:51;22.75;;;13.50;;
22268;SDS011;11303;50.772;19.670;2022-10-22T03:42:53;19.05;;;12.90;;
22268;SDS011;11303;50.772;19.670;2022-10-22T03:44:55;23.70;;;14.23;;
22268;SDS011;11303;50.772;19.670;2022-10-22T03:46:56;19.42;;;12.70;;
22268;SDS011;11303;50.772;19.670;2022-10-22T03:49:02;23.08;;;14.32;;
22268;SDS011;11303;50.772;19.670;2022-10-22T03:51:04;23.38;;;14.05;;
22268;SDS011;11303;50.772;19.670;2022-10-22T03:53:05;25.30;;;15.07;;
22268;SDS011;11303;50.772;19.670;2022-10-22T03:55:10;23.63;;;15.18;;
22268;SDS011;11303;50.772;19.670;2022-10-22T03:57:12;23.92;;;13.75;;
22268;SDS011;11303;50.772;19.670;2022-10-22T03:59:13;26.80;;;15.00;;
22268;SDS011;11303;50.772;19.670;2022-10-22T04:01:15;25.73;;;14.80;;
22268;SDS011;11303;50.772;19.670;2022-10-22T04:03:17;28.15;;;14.65;;
22268;SDS011;11303;50.772;19.670;2022-10-22T04:05:18;30.83;;;15.35;;
22268;SDS011;11303;50.772;19.670;2022-10-22T04:07:20;28.42;;;15.10;;
22268;SDS011;11303;50.772;19.670;2022-10-22T04:09:22;30.00;;;14.30;;
22268;SDS011;11303;50.772;19.670;2022-10-22T04:11:23;25.88;;;16.02;;
22268;SDS011;11303;50.772;19.670;2022-10-22T04:13:25;26.08;;;15.80;;
22268;SDS011;11303;50.772;19.670;2022-10-22T04:15:27;27.30;;;15.77;;
22268;SDS011;11303;50.772;19.670;2022-10-22T04:17:33;29.00;;;16.25;;
22268;SDS011;11303;50.772;19.670;2022-10-22T04:19:38;28.35;;;16.90;;
22268;SDS011;11303;50.772;19.670;2022-10-22T04:21:40;23.25;;;15.38;;
22268;SDS011;11303;50.772;19.670;2022-10-22T04:23:48;25.42;;;15.98;;
22268;SDS011;11303;50.772;19.670;2022-10-22T04:25:56;28.50;;;16.13;;
22268;SDS011;11303;50.772;19.670;2022-10-22T04:27:59;30.33;;;15.73;;
22268;SDS011;11303;50.772;19.670;2022-10-22T04:30:00;36.72;;;20.27;;
22268;SDS011;11303;50.772;19.670;2022-10-22T04:32:03;29.00;;;15.77;;
22268;SDS011;11303;50.772;19.670;2022-10-22T04:34:04;30.17;;;14.90;;
22268;SDS011;11303;50.772;19.670;2022-10-22T04:36:10;25.63;;;14.77;;
22268;SDS011;11303;50.772;19.670;2022-10-22T04:38:13;23.83;;;15.85;;
22268;SDS011;11303;50.772;19.670;2022-10-22T04:40:14;26.10;;;13.38;;
22268;SDS011;11303;50.772;19.670;2022-10-22T04:42:16;27.17;;;14.05;;
22268;SDS011;11303;50.772;19.670;2022-10-22T04:44:18;20.95;;;13.30;;
22268;SDS011;11303;50.772;19.670;2022-10-22T04:46:19;20.25;;;12.82;;
22268;SDS011;11303;50.772;19.670;2022-10-22T04:48:21;24.17;;;14.63;;
22268;SDS011;11303;50.772;19.670;2022-10-22T04:50:22;26.55;;;17.20;;
22268;SDS011;11303;50.772;19.670;2022-10-22T04:52:24;38.00;;;24.40;;
22268;SDS011;11303;50.772;19.670;2022-10-22T04:54:26;42.60;;;26.60;;
22268;SDS011;11303;50.772;19.670;2022-10-22T04:56:33;41.67;;;24.27;;
22268;SDS011;11303;50.772;19.670;2022-10-22T04:58:34;33.47;;;20.48;;
22268;SDS011;11303;50.772;19.670;2022-10-22T05:00:36;33.25;;;20.10;;
22268;SDS011;11303;50.772;19.670;2022-10-22T05:02:37;25.65;;;16.48;;
22268;SDS011;11303;50.772;19.670;2022-10-22T05:04:39;26.88;;;16.63;;
22268;SDS011;11303;50.772;19.670;2022-10-22T05:06:40;33.85;;;18.15;;
22268;SDS011;11303;50.772;19.670;2022-10-22T05:08:43;30.27;;;18.25;;
22268;SDS011;11303;50.772;19.670;2022-10-22T05:10:44;33.58;;;19.80;;
22268;SDS011;11303;50.772;19.670;2022-10-22T05:12:46;36.03;;;20.70;;
22268;SDS011;11303;50.772;19.670;2022-10-22T05:14:47;43.55;;;22.13;;
22268;SDS011;11303;50.772;19.670;2022-10-22T05:16:49;43.38;;;24.05;;
22268;SDS011;11303;50.772;19.670;2022-10-22T05:18:51;35.40;;;23.05;;
22268;SDS011;11303;50.772;19.670;2022-10-22T05:20:53;31.92;;;20.55;;
22268;SDS011;11303;50.772;19.670;2022-10-22T05:22:55;28.60;;;17.23;;
22268;SDS011;11303;50.772;19.670;2022-10-22T05:24:56;32.85;;;18.27;;
22268;SDS011;11303;50.772;19.670;2022-10-22T05:26:58;29.33;;;18.02;;
22268;SDS011;11303;50.772;19.670;2022-10-22T05:29:00;28.67;;;17.40;;
22268;SDS011;11303;50.772;19.670;2022-10-22T05:31:02;29.58;;;17.08;;
22268;SDS011;11303;50.772;19.670;2022-10-22T05:33:04;33.30;;;17.13;;
22268;SDS011;11303;50.772;19.670;2022-10-22T05:35:06;37.28;;;18.08;;
22268;SDS011;11303;50.772;19.670;2022-10-22T05:37:08;29.77;;;17.05;;
22268;SDS011;11303;50.772;19.670;2022-10-22T05:39:09;34.65;;;18.08;;
22268;SDS011;11303;50.772;19.670;2022-10-22T05:41:16;31.90;;;17.38;;
22268;SDS011;11303;50.772;19.670;2022-10-22T05:43:19;25.00;;;15.52;;
22268;SDS011;11303;50.772;19.670;2022-10-22T05:45:20;28.15;;;16.13;;
22268;SDS011;11303;50.772;19.670;2022-10-22T05:47:22;27.52;;;16.90;;
22268;SDS011;11303;50.772;19.670;2022-10-22T05:49:23;28.27;;;17.65;;
22268;SDS011;11303;50.772;19.670;2022-10-22T05:51:26;28.27;;;17.90;;
22268;SDS011;11303;50.772;19.670;2022-10-22T05:53:29;28.35;;;17.30;;
22268;SDS011;11303;50.772;19.670;2022-10-22T05:55:35;29.40;;;17.83;;
22268;SDS011;11303;50.772;19.670;2022-10-22T05:57:38;26.33;;;16.17;;
22268;SDS011;11303;50.772;19.670;2022-10-22T05:59:40;30.50;;;16.95;;
22268;SDS011;11303;50.772;19.670;2022-10-22T06:01:41;26.67;;;16.10;;
22268;SDS011;11303;50.772;19.670;2022-10-22T06:03:43;18.85;;;12.77;;
22268;SDS011;11303;50.772;19.670;2022-10-22T06:05:45;25.73;;;13.80;;
22268;SDS011;11303;50.772;19.670;2022-10-22T06:07:47;22.10;;;12.95;;
22268;SDS011;11303;50.772;19.670;2022-10-22T06:09:48;19.95;;;11.98;;
22268;SDS011;11303;50.772;19.670;2022-10-22T06:11:50;21.80;;;12.38;;
22268;SDS011;11303;50.772;19.670;2022-10-22T06:13:52;20.95;;;12.32;;
22268;SDS011;11303;50.772;19.670;2022-10-22T06:15:53;28.75;;;14.65;;
22268;SDS011;11303;50.772;19.670;2022-10-22T06:17:55;24.30;;;14.07;;
22268;SDS011;11303;50.772;19.670;2022-10-22T06:19:56;23.73;;;13.50;;
22268;SDS011;11303;50.772;19.670;2022-10-22T06:21:58;19.58;;;13.00;;
22268;SDS011;11303;50.772;19.670;2022-10-22T06:24:00;18.02;;;11.35;;
22268;SDS011;11303;50.772;19.670;2022-10-22T06:26:02;24.30;;;13.23;;
22268;SDS011;11303;50.772;19.670;2022-10-22T06:28:04;24.33;;;14.30;;
22268;SDS011;11303;50.772;19.670;2022-10-22T06:30:06;28.17;;;17.85;;
22268;SDS011;11303;50.772;19.670;2022-10-22T06:32:08;35.03;;;19.90;;
22268;SDS011;11303;50.772;19.670;2022-10-22T06:34:10;23.23;;;14.43;;
22268;SDS011;11303;50.772;19.670;2022-10-22T06:36:17;18.95;;;12.75;;
22268;SDS011;11303;50.772;19.670;2022-10-22T06:38:20;19.35;;;11.07;;
22268;SDS011;11303;50.772;19.670;2022-10-22T06:40:22;18.25;;;10.70;;
22268;SDS011;11303;50.772;19.670;2022-10-22T06:42:24;15.45;;;9.95;;
22268;SDS011;11303;50.772;19.670;2022-10-22T06:44:26;15.38;;;10.27;;
22268;SDS011;11303;50.772;19.670;2022-10-22T06:46:27;14.15;;;8.98;;
22268;SDS011;11303;50.772;19.670;2022-10-22T06:48:29;13.63;;;8.95;;
22268;SDS011;11303;50.772;19.670;2022-10-22T06:50:32;14.30;;;9.48;;
22268;SDS011;11303;50.772;19.670;2022-10-22T06:52:35;13.70;;;8.40;;
22268;SDS011;11303;50.772;19.670;2022-10-22T06:54:36;15.35;;;8.10;;
22268;SDS011;11303;50.772;19.670;2022-10-22T06:56:38;14.30;;;7.95;;
22268;SDS011;11303;50.772;19.670;2022-10-22T06:58:39;13.13;;;8.18;;
22268;SDS011;11303;50.772;19.670;2022-10-22T07:00:41;13.07;;;7.80;;
22268;SDS011;11303;50.772;19.670;2022-10-22T07:02:42;18.85;;;10.77;;
22268;SDS011;11303;50.772;19.670;2022-10-22T07:04:44;26.45;;;19.20;;
22268;SDS011;11303;50.772;19.670;2022-10-22T07:06:46;22.30;;;14.20;;
22268;SDS011;11303;50.772;19.670;2022-10-22T07:08:47;25.08;;;17.08;;
22268;SDS011;11303;50.772;19.670;2022-10-22T07:10:49;23.05;;;14.77;;
22268;SDS011;11303;50.772;19.670;2022-10-22T07:12:50;21.95;;;13.13;;
22268;SDS011;11303;50.772;19.670;2022-10-22T07:14:52;22.48;;;12.32;;
22268;SDS011;11303;50.772;19.670;2022-10-22T07:16:53;23.75;;;12.82;;
22268;SDS011;11303;50.772;19.670;2022-10-22T07:18:55;24.63;;;12.68;;
22268;SDS011;11303;50.772;19.670;2022-10-22T07:20:56;25.70;;;12.98;;
22268;SDS011;11303;50.772;19.670;2022-10-22T07:22:58;14.30;;;9.68;;
22268;SDS011;11303;50.772;19.670;2022-10-22T07:24:59;16.02;;;9.85;;
22268;SDS011;11303;50.772;19.670;2022-10-22T07:27:07;14.70;;;9.50;;
22268;SDS011;11303;50.772;19.670;2022-10-22T07:29:11;18.95;;;10.30;;
22268;SDS011;11303;50.772;19.670;2022-10-22T07:31:16;16.73;;;9.48;;
22268;SDS011;11303;50.772;19.670;2022-10-22T07:33:18;17.10;;;9.77;;
22268;SDS011;11303;50.772;19.670;2022-10-22T07:35:19;18.85;;;10.20;;
22268;SDS011;11303;50.772;19.670;2022-10-22T07:37:21;13.70;;;8.55;;
22268;SDS011;11303;50.772;19.670;2022-10-22T07:39:22;16.73;;;8.70;;
22268;SDS011;11303;50.772;19.670;2022-10-22T07:41:26;12.80;;;8.57;;
22268;SDS011;11303;50.772;19.670;2022-10-22T07:43:29;17.15;;;9.82;;
22268;SDS011;11303;50.772;19.670;2022-10-22T07:45:31;19.33;;;9.68;;
22268;SDS011;11303;50.772;19.670;2022-10-22T07:47:34;15.88;;;9.45;;
22268;SDS011;11303;50.772;19.670;2022-10-22T07:49:35;15.07;;;9.52;;
22268;SDS011;11303;50.772;19.670;2022-10-22T07:51:37;15.82;;;9.80;;
22268;SDS011;11303;50.772;19.670;2022-10-22T07:53:38;14.50;;;9.43;;
22268;SDS011;11303;50.772;19.670;2022-10-22T07:55:40;17.15;;;9.20;;
22268;SDS011;11303;50.772;19.670;2022-10-22T07:57:42;15.60;;;10.05;;
22268;SDS011;11303;50.772;19.670;2022-10-22T07:59:43;17.52;;;10.35;;
22268;SDS011;11303;50.772;19.670;2022-10-22T08:01:45;15.75;;;10.55;;
22268;SDS011;11303;50.772;19.670;2022-10-22T08:03:47;17.52;;;10.50;;
22268;SDS011;11303;50.772;19.670;2022-10-22T08:05:50;22.02;;;11.45;;
22268;SDS011;11303;50.772;19.670;2022-10-22T08:07:51;15.80;;;8.98;;
22268;SDS011;11303;50.772;19.670;2022-10-22T08:09:53;14.30;;;8.68;;
22268;SDS011;11303;50.772;19.670;2022-10-22T08:11:55;16.98;;;8.75;;
22268;SDS011;11303;50.772;19.670;2022-10-22T08:13:56;14.60;;;8.55;;
22268;SDS011;11303;50.772;19.670;2022-10-22T08:15:58;14.85;;;8.05;;
22268;SDS011;11303;50.772;19.670;2022-10-22T08:18:00;11.93;;;7.95;;
22268;SDS011;11303;50.772;19.670;2022-10-22T08:20:02;11.35;;;7.95;;
22268;SDS011;11303;50.772;19.670;2022-10-22T08:22:04;15.55;;;8.02;;
22268;SDS011;11303;50.772;19.670;2022-10-22T08:24:06;11.57;;;8.25;;
22268;SDS011;11303;50.772;19.670;2022-10-22T08:26:13;15.38;;;8.52;;
22268;SDS011;11303;50.772;19.670;2022-10-22T08:28:14;25.60;;;13.15;;
22268;SDS011;11303;50.772;19.670;2022-10-22T08:30:22;20.15;;;8.68;;
22268;SDS011;11303;50.772;19.670;2022-10-22T08:32:23;12.48;;;8.27;;
22268;SDS011;11303;50.772;19.670;2022-10-22T08:34:30;11.32;;;8.15;;
22268;SDS011;11303;50.772;19.670;2022-10-22T08:36:31;12.18;;;7.70;;
22268;SDS011;11303;50.772;19.670;2022-10-22T08:38:33;11.25;;;7.20;;
22268;SDS011;11303;50.772;19.670;2022-10-22T08:40:36;14.10;;;8.02;;
22268;SDS011;11303;50.772;19.670;2022-10-22T08:42:57;17.45;;;8.75;;
22268;SDS011;11303;50.772;19.670;2022-10-22T08:45:28;16.98;;;9.50;;
22268;SDS011;11303;50.772;19.670;2022-10-22T08:48:25;18.63;;;9.80;;
22268;SDS011;11303;50.772;19.670;2022-10-22T08:52:19;11.25;;;7.45;;
22268;SDS011;11303;50.772;19.670;2022-10-22T08:54:34;15.07;;;8.40;;
22268;SDS011;11303;50.772;19.670;2022-10-22T08:56:42;13.23;;;8.50;;
22268;SDS011;11303;50.772;19.670;2022-10-22T08:58:50;14.00;;;8.63;;
22268;SDS011;11303;50.772;19.670;2022-10-22T09:00:58;16.73;;;9.50;;
22268;SDS011;11303;50.772;19.670;2022-10-22T09:08:15;15.88;;;9.15;;
22268;SDS011;11303;50.772;19.670;2022-10-22T09:10:20;20.10;;;10.20;;
22268;SDS011;11303;50.772;19.670;2022-10-22T09:12:35;16.83;;;10.07;;
22268;SDS011;11303;50.772;19.670;2022-10-22T09:14:37;15.73;;;10.32;;
22268;SDS011;11303;50.772;19.670;2022-10-22T09:16:50;16.92;;;10.23;;
22268;SDS011;11303;50.772;19.670;2022-10-22T09:19:17;19.65;;;11.02;;
22268;SDS011;11303;50.772;19.670;2022-10-22T09:24:12;17.23;;;10.27;;
22268;SDS011;11303;50.772;19.670;2022-10-22T09:28:25;14.20;;;10.23;;
22268;SDS011;11303;50.772;19.670;2022-10-22T09:30:31;18.17;;;10.73;;
22268;SDS011;11303;50.772;19.670;2022-10-22T09:32:35;18.60;;;11.02;;
22268;SDS011;11303;50.772;19.670;2022-10-22T09:34:37;20.02;;;12.13;;
22268;SDS011;11303;50.772;19.670;2022-10-22T09:36:39;18.20;;;10.18;;
22268;SDS011;11303;50.772;19.670;2022-10-22T09:38:44;15.35;;;9.90;;
22268;SDS011;11303;50.772;19.670;2022-10-22T09:40:48;17.27;;;9.70;;
22268;SDS011;11303;50.772;19.670;2022-10-22T09:42:52;17.70;;;9.80;;
22268;SDS011;11303;50.772;19.670;2022-10-22T09:44:55;16.67;;;10.57;;
22268;SDS011;11303;50.772;19.670;2022-10-22T09:47:02;18.83;;;10.93;;
22268;SDS011;11303;50.772;19.670;2022-10-22T09:49:08;16.80;;;10.95;;
22268;SDS011;11303;50.772;19.670;2022-10-22T09:51:21;24.17;;;12.05;;
22268;SDS011;11303;50.772;19.670;2022-10-22T09:53:25;22.13;;;10.82;;
22268;SDS011;11303;50.772;19.670;2022-10-22T09:55:28;19.55;;;10.48;;
22268;SDS011;11303;50.772;19.670;2022-10-22T09:57:30;16.42;;;9.98;;
22268;SDS011;11303;50.772;19.670;2022-10-22T09:59:36;22.90;;;10.65;;
22268;SDS011;11303;50.772;19.670;2022-10-22T10:01:38;19.42;;;10.40;;
22268;SDS011;11303;50.772;19.670;2022-10-22T10:03:41;19.75;;;11.32;;
22268;SDS011;11303;50.772;19.670;2022-10-22T10:05:44;20.98;;;11.52;;
22268;SDS011;11303;50.772;19.670;2022-10-22T10:07:47;20.77;;;11.38;;
22268;SDS011;11303;50.772;19.670;2022-10-22T10:09:51;20.63;;;11.32;;
22268;SDS011;11303;50.772;19.670;2022-10-22T10:14:28;17.33;;;10.65;;
22268;SDS011;11303;50.772;19.670;2022-10-22T10:18:57;22.65;;;11.07;;
22268;SDS011;11303;50.772;19.670;2022-10-22T10:23:52;17.13;;;12.15;;
22268;SDS011;11303;50.772;19.670;2022-10-22T10:26:24;21.35;;;11.68;;
22268;SDS011;11303;50.772;19.670;2022-10-22T10:31:02;24.00;;;12.02;;
22268;SDS011;11303;50.772;19.670;2022-10-22T10:35:16;20.27;;;11.38;;
22268;SDS011;11303;50.772;19.670;2022-10-22T10:37:25;23.70;;;13.50;;
22268;SDS011;11303;50.772;19.670;2022-10-22T10:39:34;17.98;;;11.25;;
22268;SDS011;11303;50.772;19.670;2022-10-22T10:41:55;20.50;;;13.40;;
22268;SDS011;11303;50.772;19.670;2022-10-22T10:46:54;32.38;;;18.08;;
22268;SDS011;11303;50.772;19.670;2022-10-22T10:49:26;31.42;;;18.95;;
22268;SDS011;11303;50.772;19.670;2022-10-22T10:56:26;28.95;;;16.98;;
22268;SDS011;11303;50.772;19.670;2022-10-22T11:00:55;35.95;;;18.25;;
22268;SDS011;11303;50.772;19.670;2022-10-22T11:07:53;39.15;;;22.27;;
22268;SDS011;11303;50.772;19.670;2022-10-22T11:10:07;32.37;;;19.50;;
22268;SDS011;11303;50.772;19.670;2022-10-22T11:12:15;31.33;;;18.73;;
22268;SDS011;11303;50.772;19.670;2022-10-22T11:14:30;23.10;;;16.10;;
22268;SDS011;11303;50.772;19.670;2022-10-22T11:16:39;35.78;;;17.63;;
22268;SDS011;11303;50.772;19.670;2022-10-22T11:20:59;30.13;;;16.95;;
22268;SDS011;11303;50.772;19.670;2022-10-22T11:23:13;31.08;;;17.20;;
22268;SDS011;11303;50.772;19.670;2022-10-22T11:25:28;27.45;;;16.27;;
22268;SDS011;11303;50.772;19.670;2022-10-22T11:27:41;23.83;;;15.63;;
22268;SDS011;11303;50.772;19.670;2022-10-22T11:30:17;28.42;;;16.90;;
22268;SDS011;11303;50.772;19.670;2022-10-22T11:32:31;31.25;;;20.27;;
22268;SDS011;11303;50.772;19.670;2022-10-22T11:34:34;31.40;;;21.63;;
22268;SDS011;11303;50.772;19.670;2022-10-22T11:36:48;83.10;;;52.63;;
22268;SDS011;11303;50.772;19.670;2022-10-22T11:39:01;79.95;;;47.13;;
22268;SDS011;11303;50.772;19.670;2022-10-22T11:41:05;138.18;;;85.70;;
22268;SDS011;11303;50.772;19.670;2022-10-22T11:43:28;150.23;;;95.22;;
22268;SDS011;11303;50.772;19.670;2022-10-22T11:45:33;60.83;;;37.67;;
22268;SDS011;11303;50.772;19.670;2022-10-22T11:52:26;277.63;;;102.55;;
22268;SDS011;11303;50.772;19.670;2022-10-22T11:54:52;127.18;;;57.47;;
22268;SDS011;11303;50.772;19.670;2022-10-22T11:59:37;63.42;;;39.40;;
22268;SDS011;11303;50.772;19.670;2022-10-22T12:01:40;48.80;;;28.85;;
22268;SDS011;11303;50.772;19.670;2022-10-22T12:06:26;35.35;;;21.42;;
22268;SDS011;11303;50.772;19.670;2022-10-22T12:08:31;33.28;;;21.60;;
22268;SDS011;11303;50.772;19.670;2022-10-22T12:10:35;37.58;;;21.48;;
22268;SDS011;11303;50.772;19.670;2022-10-22T12:15:28;38.28;;;22.95;;
22268;SDS011;11303;50.772;19.670;2022-10-22T12:17:33;39.03;;;23.58;;
22268;SDS011;11303;50.772;19.670;2022-10-22T12:19:41;37.75;;;22.75;;
22268;SDS011;11303;50.772;19.670;2022-10-22T12:21:51;40.25;;;23.60;;
22268;SDS011;11303;50.772;19.670;2022-10-22T12:24:00;33.30;;;22.25;;
22268;SDS011;11303;50.772;19.670;2022-10-22T12:26:03;45.35;;;22.75;;
22268;SDS011;11303;50.772;19.670;2022-10-22T12:28:09;35.50;;;21.88;;
22268;SDS011;11303;50.772;19.670;2022-10-22T12:30:20;36.65;;;21.38;;
22268;SDS011;11303;50.772;19.670;2022-10-22T12:32:33;35.25;;;21.17;;
22268;SDS011;11303;50.772;19.670;2022-10-22T12:34:43;35.40;;;18.50;;
22268;SDS011;11303;50.772;19.670;2022-10-22T12:36:50;28.42;;;18.48;;
22268;SDS011;11303;50.772;19.670;2022-10-22T12:38:54;33.42;;;21.75;;
22268;SDS011;11303;50.772;19.670;2022-10-22T12:40:55;64.65;;;33.47;;
22268;SDS011;11303;50.772;19.670;2022-10-22T12:42:59;70.22;;;34.85;;
22268;SDS011;11303;50.772;19.670;2022-10-22T12:45:02;64.50;;;31.75;;
22268;SDS011;11303;50.772;19.670;2022-10-22T12:47:04;48.10;;;29.55;;
22268;SDS011;11303;50.772;19.670;2022-10-22T12:49:10;75.10;;;46.38;;
22268;SDS011;11303;50.772;19.670;2022-10-22T12:51:17;44.40;;;31.10;;
22268;SDS011;11303;50.772;19.670;2022-10-22T12:53:26;38.50;;;26.73;;
22268;SDS011;11303;50.772;19.670;2022-10-22T12:55:31;34.97;;;23.17;;
22268;SDS011;11303;50.772;19.670;2022-10-22T12:57:34;33.05;;;21.48;;
22268;SDS011;11303;50.772;19.670;2022-10-22T12:59:36;35.60;;;20.98;;
22268;SDS011;11303;50.772;19.670;2022-10-22T13:01:40;31.25;;;20.38;;
22268;SDS011;11303;50.772;19.670;2022-10-22T13:03:44;30.88;;;19.77;;
22268;SDS011;11303;50.772;19.670;2022-10-22T13:05:50;35.28;;;19.75;;
22268;SDS011;11303;50.772;19.670;2022-10-22T13:08:02;34.17;;;19.00;;
22268;SDS011;11303;50.772;19.670;2022-10-22T13:12:38;31.88;;;18.52;;
22268;SDS011;11303;50.772;19.670;2022-10-22T13:14:45;27.75;;;19.80;;
22268;SDS011;11303;50.772;19.670;2022-10-22T13:17:03;32.10;;;19.30;;
22268;SDS011;11303;50.772;19.670;2022-10-22T13:21:37;37.83;;;21.63;;
22268;SDS011;11303;50.772;19.670;2022-10-22T13:23:39;28.75;;;19.15;;
22268;SDS011;11303;50.772;19.670;2022-10-22T13:25:58;35.70;;;21.85;;
22268;SDS011;11303;50.772;19.670;2022-10-22T13:30:20;32.67;;;20.45;;